DENIK EDGS-EDHL
Flight info
| Callsign | DENIK |
|---|---|
| Flight time | N/A |
| Altitude | 9000 |
| Route | BADGO Y867 PELUN DCT NIMIT DCT WRB P12 NORTA/N0198F200 P605 HAM |
| Aircraft | BT36/L-BDFGLORY/S |
Departure
| Time | 2026-05-07 09:17 |
|---|---|
| Airport | Siegerland Airport (EDGS) |
Arrival
| Time | N/A |
|---|---|
| Airport | Lübeck Blankensee Airport (EDHL) |
| Time | Latitude | Longitude | Altitude | Speed | Heading |
|---|---|---|---|---|---|
| 2026-05-07 09:09 | 50.70808 | 8.07741 | 1972 ft | 0 kts | 33° |
| 2026-05-07 09:13 | 50.70812 | 8.07756 | 1971 ft | 7 kts | 86° |
| 2026-05-07 09:13 | 50.70758 | 8.07884 | 1971 ft | 21 kts | 127° |
| 2026-05-07 09:14 | 50.70706 | 8.08101 | 1957 ft | 23 kts | 43° |
| 2026-05-07 09:14 | 50.70726 | 8.08137 | 1955 ft | 0 kts | 51° |
| 2026-05-07 09:16 | 50.70722 | 8.08232 | 1949 ft | 19 kts | 97° |
| 2026-05-07 09:16 | 50.70768 | 8.08290 | 1947 ft | 10 kts | 307° |
| 2026-05-07 09:16 | 50.70771 | 8.08285 | 1947 ft | 0 kts | 306° |
| 2026-05-07 09:16 | 50.70771 | 8.08284 | 1947 ft | 0 kts | 306° |
| 2026-05-07 09:17 | 50.70910 | 8.07993 | 1994 ft | 69 kts | 309° |
| 2026-05-07 09:17 | 50.71243 | 8.07291 | 2381 ft | 90 kts | 310° |
| 2026-05-07 09:17 | 50.71666 | 8.06439 | 2907 ft | 108 kts | 306° |
| 2026-05-07 09:17 | 50.72108 | 8.05313 | 3312 ft | 130 kts | 304° |
| 2026-05-07 09:18 | 50.72611 | 8.04104 | 3783 ft | 133 kts | 316° |
| 2026-05-07 09:18 | 50.73462 | 8.03700 | 4261 ft | 134 kts | 12° |
| 2026-05-07 09:18 | 50.74338 | 8.04275 | 4747 ft | 139 kts | 22° |
| 2026-05-07 09:18 | 50.75053 | 8.05298 | 5208 ft | 146 kts | 58° |
| 2026-05-07 09:19 | 50.75516 | 8.06778 | 5600 ft | 154 kts | 60° |
| 2026-05-07 09:19 | 50.76004 | 8.08315 | 5977 ft | 159 kts | 60° |
| 2026-05-07 09:19 | 50.76574 | 8.09810 | 6346 ft | 159 kts | 43° |
| 2026-05-07 09:19 | 50.77482 | 8.10799 | 6693 ft | 160 kts | 22° |
| 2026-05-07 09:20 | 50.78540 | 8.11330 | 7044 ft | 160 kts | 14° |
| 2026-05-07 09:20 | 50.79625 | 8.11760 | 7400 ft | 161 kts | 13° |
| 2026-05-07 09:20 | 50.80712 | 8.12180 | 7805 ft | 160 kts | 13° |
| 2026-05-07 09:20 | 50.81786 | 8.12593 | 8231 ft | 158 kts | 13° |
| 2026-05-07 09:21 | 50.82854 | 8.13009 | 8673 ft | 158 kts | 13° |
| 2026-05-07 09:21 | 50.83936 | 8.13430 | 8999 ft | 166 kts | 13° |
| 2026-05-07 09:21 | 50.85110 | 8.13951 | 9008 ft | 183 kts | 23° |
| 2026-05-07 09:21 | 50.86192 | 8.15120 | 9012 ft | 192 kts | 36° |
| 2026-05-07 09:22 | 50.86331 | 8.15290 | 9014 ft | 191 kts | 36° |
| 2026-05-07 09:22 | 50.87344 | 8.16541 | 9010 ft | 180 kts | 36° |
| 2026-05-07 09:22 | 50.88313 | 8.17742 | 9009 ft | 175 kts | 37° |
| 2026-05-07 09:22 | 50.89399 | 8.18468 | 9003 ft | 171 kts | 5° |
| 2026-05-07 09:23 | 50.90578 | 8.18643 | 9004 ft | 172 kts | 6° |
| 2026-05-07 09:23 | 50.91796 | 8.18736 | 9004 ft | 180 kts | 350° |
| 2026-05-07 09:23 | 50.92919 | 8.17843 | 9006 ft | 183 kts | 333° |
| 2026-05-07 09:23 | 50.94153 | 8.17486 | 9009 ft | 183 kts | 5° |
| 2026-05-07 09:24 | 50.95407 | 8.17884 | 9012 ft | 185 kts | 14° |
| 2026-05-07 09:24 | 50.96648 | 8.18414 | 9019 ft | 185 kts | 14° |
| 2026-05-07 09:24 | 50.97897 | 8.18921 | 9017 ft | 185 kts | 13° |
| 2026-05-07 09:24 | 50.99151 | 8.19416 | 9016 ft | 186 kts | 13° |
| 2026-05-07 09:25 | 51.00403 | 8.19910 | 9017 ft | 186 kts | 13° |
| 2026-05-07 09:25 | 51.01657 | 8.20404 | 9018 ft | 185 kts | 13° |
| 2026-05-07 09:25 | 51.02911 | 8.20899 | 9019 ft | 186 kts | 13° |
| 2026-05-07 09:25 | 51.04167 | 8.21396 | 9017 ft | 186 kts | 13° |
| 2026-05-07 09:26 | 51.05419 | 8.21890 | 9021 ft | 186 kts | 13° |
| 2026-05-07 09:28 | 51.06258 | 8.22221 | 9021 ft | 186 kts | 13° |
| 2026-05-07 09:29 | 51.07514 | 8.22718 | 9021 ft | 185 kts | 13° |
| 2026-05-07 09:29 | 51.08758 | 8.23249 | 9021 ft | 186 kts | 20° |
| 2026-05-07 09:29 | 51.09823 | 8.24399 | 9015 ft | 188 kts | 44° |
| 2026-05-07 09:29 | 51.10556 | 8.26125 | 9016 ft | 189 kts | 59° |
| 2026-05-07 09:30 | 51.11208 | 8.27945 | 9020 ft | 189 kts | 58° |
| 2026-05-07 09:30 | 51.11870 | 8.29758 | 9019 ft | 190 kts | 58° |
| 2026-05-07 09:30 | 51.12529 | 8.31571 | 9019 ft | 189 kts | 58° |
| 2026-05-07 09:30 | 51.13182 | 8.33377 | 9023 ft | 189 kts | 58° |
| 2026-05-07 09:31 | 51.13837 | 8.35188 | 9019 ft | 187 kts | 58° |
| 2026-05-07 09:31 | 51.14482 | 8.36971 | 9015 ft | 185 kts | 58° |
| 2026-05-07 09:31 | 51.15120 | 8.38736 | 9013 ft | 183 kts | 58° |
| 2026-05-07 09:31 | 51.15751 | 8.40486 | 9009 ft | 182 kts | 58° |
| 2026-05-07 09:32 | 51.16383 | 8.42230 | 9010 ft | 181 kts | 58° |
| 2026-05-07 09:32 | 51.17010 | 8.43966 | 9008 ft | 181 kts | 58° |
| 2026-05-07 09:32 | 51.17694 | 8.45627 | 9006 ft | 178 kts | 43° |
| 2026-05-07 09:32 | 51.18800 | 8.46383 | 9005 ft | 175 kts | 7° |
| 2026-05-07 09:33 | 51.20018 | 8.46528 | 9008 ft | 176 kts | 4° |